Terminal Aerodrome Forecast
Issued by NWS Duluth, MN

Home | Current Version | Previous Version | Text Only | Print | Product List | Glossary On
Versions: 1 2 3 4 5 6 7 8 9 10 11 12 13 14 15 16
000
FTUS43 KDLH 301127
TAFINL
TAF
KINL 301127Z 3012/0112 00000KT P6SM SKC
     FM301500 08010KT P6SM SKC
     FM301800 07012G20KT P6SM FEW050
     FM010200 06005KT P6SM SKC=

USA.gov is the U.S. government's official web portal to all federal, state and local government web resources and services.